sensor_id;sensor_type;location;lat;lon;timestamp;P1;durP1;ratioP1;P2;durP2;ratioP2
26594;SDS011;14238;49.496;8.154;2022-12-01T00:00:46;14.50;;;11.10;;
26594;SDS011;14238;49.496;8.154;2022-12-01T00:03:11;15.37;;;12.80;;
26594;SDS011;14238;49.496;8.154;2022-12-01T00:05:37;14.60;;;11.00;;
26594;SDS011;14238;49.496;8.154;2022-12-01T00:08:03;14.30;;;11.03;;
26594;SDS011;14238;49.496;8.154;2022-12-01T00:10:29;14.57;;;11.80;;
26594;SDS011;14238;49.496;8.154;2022-12-01T00:12:57;14.03;;;11.13;;
26594;SDS011;14238;49.496;8.154;2022-12-01T00:15:25;12.67;;;10.60;;
26594;SDS011;14238;49.496;8.154;2022-12-01T00:17:59;13.23;;;10.20;;
26594;SDS011;14238;49.496;8.154;2022-12-01T00:20:25;14.03;;;11.70;;
26594;SDS011;14238;49.496;8.154;2022-12-01T00:22:51;15.13;;;11.80;;
26594;SDS011;14238;49.496;8.154;2022-12-01T00:25:17;15.70;;;11.17;;
26594;SDS011;14238;49.496;8.154;2022-12-01T00:27:50;16.10;;;12.00;;
26594;SDS011;14238;49.496;8.154;2022-12-01T00:30:17;15.00;;;11.70;;
26594;SDS011;14238;49.496;8.154;2022-12-01T00:32:44;11.90;;;9.73;;
26594;SDS011;14238;49.496;8.154;2022-12-01T00:35:11;14.53;;;11.60;;
26594;SDS011;14238;49.496;8.154;2022-12-01T00:37:37;16.33;;;11.90;;
26594;SDS011;14238;49.496;8.154;2022-12-01T00:40:03;15.90;;;11.67;;
26594;SDS011;14238;49.496;8.154;2022-12-01T00:42:30;17.37;;;12.67;;
26594;SDS011;14238;49.496;8.154;2022-12-01T00:44:55;17.73;;;13.83;;
26594;SDS011;14238;49.496;8.154;2022-12-01T00:47:21;16.63;;;13.17;;
26594;SDS011;14238;49.496;8.154;2022-12-01T00:49:46;20.67;;;15.20;;
26594;SDS011;14238;49.496;8.154;2022-12-01T00:52:13;20.40;;;14.17;;
26594;SDS011;14238;49.496;8.154;2022-12-01T00:54:39;19.37;;;13.80;;
26594;SDS011;14238;49.496;8.154;2022-12-01T00:57:05;18.83;;;13.90;;
26594;SDS011;14238;49.496;8.154;2022-12-01T00:59:31;20.47;;;14.20;;
26594;SDS011;14238;49.496;8.154;2022-12-01T01:01:57;19.30;;;14.60;;
26594;SDS011;14238;49.496;8.154;2022-12-01T01:04:22;17.30;;;13.10;;
26594;SDS011;14238;49.496;8.154;2022-12-01T01:06:48;20.90;;;16.07;;
26594;SDS011;14238;49.496;8.154;2022-12-01T01:09:14;19.03;;;14.80;;
26594;SDS011;14238;49.496;8.154;2022-12-01T01:11:40;19.10;;;14.30;;
26594;SDS011;14238;49.496;8.154;2022-12-01T01:14:06;19.13;;;14.97;;
26594;SDS011;14238;49.496;8.154;2022-12-01T01:16:33;20.67;;;15.07;;
26594;SDS011;14238;49.496;8.154;2022-12-01T01:18:59;21.13;;;14.50;;
26594;SDS011;14238;49.496;8.154;2022-12-01T01:21:25;18.43;;;14.53;;
26594;SDS011;14238;49.496;8.154;2022-12-01T01:23:51;18.17;;;14.40;;
26594;SDS011;14238;49.496;8.154;2022-12-01T01:28:45;21.10;;;15.20;;
26594;SDS011;14238;49.496;8.154;2022-12-01T01:31:13;21.90;;;14.93;;
26594;SDS011;14238;49.496;8.154;2022-12-01T01:33:41;21.20;;;15.60;;
26594;SDS011;14238;49.496;8.154;2022-12-01T01:36:07;18.37;;;15.10;;
26594;SDS011;14238;49.496;8.154;2022-12-01T01:38:33;19.70;;;14.70;;
26594;SDS011;14238;49.496;8.154;2022-12-01T01:40:59;19.70;;;14.40;;
26594;SDS011;14238;49.496;8.154;2022-12-01T01:46:09;17.20;;;13.50;;
26594;SDS011;14238;49.496;8.154;2022-12-01T01:48:40;19.33;;;14.40;;
26594;SDS011;14238;49.496;8.154;2022-12-01T01:51:09;19.70;;;15.57;;
26594;SDS011;14238;49.496;8.154;2022-12-01T01:53:37;18.60;;;15.17;;
26594;SDS011;14238;49.496;8.154;2022-12-01T01:56:02;20.50;;;14.37;;
26594;SDS011;14238;49.496;8.154;2022-12-01T01:58:30;21.30;;;14.20;;
26594;SDS011;14238;49.496;8.154;2022-12-01T02:00:56;21.73;;;14.97;;
26594;SDS011;14238;49.496;8.154;2022-12-01T02:03:21;17.70;;;13.67;;
26594;SDS011;14238;49.496;8.154;2022-12-01T02:05:48;21.27;;;15.83;;
26594;SDS011;14238;49.496;8.154;2022-12-01T02:08:14;22.70;;;15.17;;
26594;SDS011;14238;49.496;8.154;2022-12-01T02:41:26;21.93;;;16.70;;
26594;SDS011;14238;49.496;8.154;2022-12-01T02:46:50;23.03;;;16.50;;
26594;SDS011;14238;49.496;8.154;2022-12-01T02:49:40;24.07;;;16.47;;
26594;SDS011;14238;49.496;8.154;2022-12-01T02:52:11;20.80;;;16.23;;
26594;SDS011;14238;49.496;8.154;2022-12-01T02:54:38;24.20;;;16.50;;
26594;SDS011;14238;49.496;8.154;2022-12-01T02:57:08;23.00;;;17.27;;
26594;SDS011;14238;49.496;8.154;2022-12-01T02:59:36;23.30;;;18.07;;
26594;SDS011;14238;49.496;8.154;2022-12-01T03:02:10;23.27;;;17.60;;
26594;SDS011;14238;49.496;8.154;2022-12-01T03:10:21;22.27;;;15.67;;
26594;SDS011;14238;49.496;8.154;2022-12-01T03:12:58;24.00;;;18.13;;
26594;SDS011;14238;49.496;8.154;2022-12-01T03:15:31;26.97;;;19.20;;
26594;SDS011;14238;49.496;8.154;2022-12-01T03:18:08;24.17;;;16.73;;
26594;SDS011;14238;49.496;8.154;2022-12-01T03:23:29;25.40;;;17.60;;
26594;SDS011;14238;49.496;8.154;2022-12-01T03:25:59;27.40;;;17.40;;
26594;SDS011;14238;49.496;8.154;2022-12-01T03:28:32;27.00;;;19.10;;
26594;SDS011;14238;49.496;8.154;2022-12-01T03:31:04;28.87;;;20.10;;
26594;SDS011;14238;49.496;8.154;2022-12-01T03:33:38;27.50;;;19.47;;
26594;SDS011;14238;49.496;8.154;2022-12-01T03:38:39;20.73;;;16.43;;
26594;SDS011;14238;49.496;8.154;2022-12-01T03:41:12;25.40;;;18.50;;
26594;SDS011;14238;49.496;8.154;2022-12-01T03:43:44;25.87;;;18.13;;
26594;SDS011;14238;49.496;8.154;2022-12-01T03:46:20;24.57;;;18.03;;
26594;SDS011;14238;49.496;8.154;2022-12-01T03:48:53;24.00;;;19.07;;
26594;SDS011;14238;49.496;8.154;2022-12-01T03:54:10;25.87;;;19.20;;
26594;SDS011;14238;49.496;8.154;2022-12-01T03:56:46;24.40;;;18.90;;
26594;SDS011;14238;49.496;8.154;2022-12-01T03:59:18;25.87;;;19.57;;
26594;SDS011;14238;49.496;8.154;2022-12-01T04:01:46;28.13;;;20.80;;
26594;SDS011;14238;49.496;8.154;2022-12-01T04:04:12;30.80;;;21.53;;
26594;SDS011;14238;49.496;8.154;2022-12-01T04:06:42;28.30;;;20.30;;
26594;SDS011;14238;49.496;8.154;2022-12-01T04:09:11;26.83;;;20.70;;
26594;SDS011;14238;49.496;8.154;2022-12-01T04:11:36;28.63;;;19.87;;
26594;SDS011;14238;49.496;8.154;2022-12-01T04:14:20;27.43;;;19.53;;
26594;SDS011;14238;49.496;8.154;2022-12-01T04:16:46;24.00;;;19.47;;
26594;SDS011;14238;49.496;8.154;2022-12-01T04:19:12;22.20;;;17.00;;
26594;SDS011;14238;49.496;8.154;2022-12-01T04:21:38;28.97;;;20.80;;
26594;SDS011;14238;49.496;8.154;2022-12-01T04:24:04;27.93;;;21.03;;
26594;SDS011;14238;49.496;8.154;2022-12-01T04:26:31;26.20;;;19.17;;
26594;SDS011;14238;49.496;8.154;2022-12-01T04:28:59;28.77;;;22.43;;
26594;SDS011;14238;49.496;8.154;2022-12-01T04:31:25;25.67;;;18.73;;
26594;SDS011;14238;49.496;8.154;2022-12-01T04:33:52;29.13;;;20.47;;
26594;SDS011;14238;49.496;8.154;2022-12-01T04:36:19;25.90;;;19.70;;
26594;SDS011;14238;49.496;8.154;2022-12-01T04:38:45;29.53;;;20.57;;
26594;SDS011;14238;49.496;8.154;2022-12-01T04:41:11;28.80;;;21.23;;
26594;SDS011;14238;49.496;8.154;2022-12-01T04:43:37;25.00;;;19.70;;
26594;SDS011;14238;49.496;8.154;2022-12-01T04:46:04;26.77;;;20.13;;
26594;SDS011;14238;49.496;8.154;2022-12-01T04:48:30;30.30;;;22.23;;
26594;SDS011;14238;49.496;8.154;2022-12-01T04:50:56;27.47;;;19.73;;
26594;SDS011;14238;49.496;8.154;2022-12-01T04:53:22;26.93;;;19.70;;
26594;SDS011;14238;49.496;8.154;2022-12-01T04:55:48;26.23;;;19.90;;
26594;SDS011;14238;49.496;8.154;2022-12-01T04:58:13;25.60;;;20.33;;
26594;SDS011;14238;49.496;8.154;2022-12-01T05:00:39;25.20;;;20.57;;
26594;SDS011;14238;49.496;8.154;2022-12-01T05:03:04;25.23;;;19.50;;
26594;SDS011;14238;49.496;8.154;2022-12-01T05:05:30;25.27;;;19.07;;
26594;SDS011;14238;49.496;8.154;2022-12-01T05:07:56;24.37;;;17.90;;
26594;SDS011;14238;49.496;8.154;2022-12-01T05:10:23;25.00;;;19.57;;
26594;SDS011;14238;49.496;8.154;2022-12-01T05:12:48;26.20;;;19.97;;
26594;SDS011;14238;49.496;8.154;2022-12-01T05:15:14;25.70;;;20.03;;
26594;SDS011;14238;49.496;8.154;2022-12-01T05:17:40;28.87;;;19.93;;
26594;SDS011;14238;49.496;8.154;2022-12-01T05:20:06;24.03;;;18.30;;
26594;SDS011;14238;49.496;8.154;2022-12-01T05:22:51;25.13;;;19.40;;
26594;SDS011;14238;49.496;8.154;2022-12-01T05:25:19;25.63;;;19.30;;
26594;SDS011;14238;49.496;8.154;2022-12-01T05:27:45;28.00;;;20.63;;
26594;SDS011;14238;49.496;8.154;2022-12-01T05:30:10;29.50;;;21.60;;
26594;SDS011;14238;49.496;8.154;2022-12-01T05:32:36;26.57;;;20.00;;
26594;SDS011;14238;49.496;8.154;2022-12-01T05:35:01;26.40;;;20.37;;
26594;SDS011;14238;49.496;8.154;2022-12-01T05:37:27;30.67;;;21.60;;
26594;SDS011;14238;49.496;8.154;2022-12-01T05:39:58;27.87;;;20.60;;
26594;SDS011;14238;49.496;8.154;2022-12-01T05:42:24;26.40;;;20.50;;
26594;SDS011;14238;49.496;8.154;2022-12-01T05:44:49;27.80;;;21.07;;
26594;SDS011;14238;49.496;8.154;2022-12-01T05:47:15;25.87;;;20.97;;
26594;SDS011;14238;49.496;8.154;2022-12-01T05:49:41;27.03;;;20.03;;
26594;SDS011;14238;49.496;8.154;2022-12-01T05:52:06;28.30;;;21.20;;
26594;SDS011;14238;49.496;8.154;2022-12-01T05:54:32;26.20;;;20.70;;
26594;SDS011;14238;49.496;8.154;2022-12-01T05:56:57;25.90;;;20.63;;
26594;SDS011;14238;49.496;8.154;2022-12-01T05:59:23;28.50;;;21.20;;
26594;SDS011;14238;49.496;8.154;2022-12-01T06:01:48;28.77;;;21.30;;
26594;SDS011;14238;49.496;8.154;2022-12-01T06:04:14;34.37;;;22.70;;
26594;SDS011;14238;49.496;8.154;2022-12-01T06:06:39;30.30;;;22.80;;
26594;SDS011;14238;49.496;8.154;2022-12-01T06:09:05;30.40;;;23.07;;
26594;SDS011;14238;49.496;8.154;2022-12-01T06:11:32;35.20;;;25.07;;
26594;SDS011;14238;49.496;8.154;2022-12-01T06:13:57;30.60;;;22.93;;
26594;SDS011;14238;49.496;8.154;2022-12-01T06:16:23;29.57;;;21.97;;
26594;SDS011;14238;49.496;8.154;2022-12-01T06:18:48;32.63;;;23.80;;
26594;SDS011;14238;49.496;8.154;2022-12-01T06:21:14;34.33;;;25.30;;
26594;SDS011;14238;49.496;8.154;2022-12-01T06:23:40;32.47;;;22.77;;
26594;SDS011;14238;49.496;8.154;2022-12-01T06:26:05;35.40;;;24.93;;
26594;SDS011;14238;49.496;8.154;2022-12-01T06:28:31;29.70;;;22.33;;
26594;SDS011;14238;49.496;8.154;2022-12-01T06:30:56;34.77;;;25.20;;
26594;SDS011;14238;49.496;8.154;2022-12-01T06:33:22;32.23;;;22.87;;
26594;SDS011;14238;49.496;8.154;2022-12-01T06:35:47;29.17;;;21.30;;
26594;SDS011;14238;49.496;8.154;2022-12-01T06:38:13;35.83;;;23.90;;
26594;SDS011;14238;49.496;8.154;2022-12-01T06:40:38;33.90;;;22.57;;
26594;SDS011;14238;49.496;8.154;2022-12-01T06:43:04;30.60;;;22.73;;
26594;SDS011;14238;49.496;8.154;2022-12-01T06:45:30;34.77;;;23.23;;
26594;SDS011;14238;49.496;8.154;2022-12-01T06:47:56;29.10;;;21.07;;
26594;SDS011;14238;49.496;8.154;2022-12-01T06:50:22;27.80;;;20.77;;
26594;SDS011;14238;49.496;8.154;2022-12-01T06:52:48;32.93;;;22.33;;
26594;SDS011;14238;49.496;8.154;2022-12-01T06:55:14;33.83;;;22.87;;
26594;SDS011;14238;49.496;8.154;2022-12-01T06:57:40;34.70;;;22.70;;
26594;SDS011;14238;49.496;8.154;2022-12-01T07:00:05;28.93;;;20.70;;
26594;SDS011;14238;49.496;8.154;2022-12-01T07:02:32;29.63;;;20.80;;
26594;SDS011;14238;49.496;8.154;2022-12-01T07:04:58;33.33;;;21.00;;
26594;SDS011;14238;49.496;8.154;2022-12-01T07:07:24;31.20;;;21.70;;
26594;SDS011;14238;49.496;8.154;2022-12-01T07:09:49;27.57;;;20.23;;
26594;SDS011;14238;49.496;8.154;2022-12-01T07:12:15;26.70;;;20.63;;
26594;SDS011;14238;49.496;8.154;2022-12-01T07:14:40;28.63;;;21.07;;
26594;SDS011;14238;49.496;8.154;2022-12-01T07:17:06;27.83;;;20.83;;
26594;SDS011;14238;49.496;8.154;2022-12-01T07:19:33;25.70;;;19.60;;
26594;SDS011;14238;49.496;8.154;2022-12-01T07:21:59;27.07;;;19.40;;
26594;SDS011;14238;49.496;8.154;2022-12-01T07:24:24;25.90;;;18.90;;
26594;SDS011;14238;49.496;8.154;2022-12-01T07:26:50;22.43;;;18.53;;
26594;SDS011;14238;49.496;8.154;2022-12-01T07:29:15;24.47;;;19.80;;
26594;SDS011;14238;49.496;8.154;2022-12-01T07:31:41;24.10;;;18.70;;
26594;SDS011;14238;49.496;8.154;2022-12-01T07:34:09;27.07;;;18.90;;
26594;SDS011;14238;49.496;8.154;2022-12-01T07:36:37;25.67;;;19.13;;
26594;SDS011;14238;49.496;8.154;2022-12-01T07:39:06;25.63;;;18.90;;
26594;SDS011;14238;49.496;8.154;2022-12-01T07:41:32;25.07;;;18.37;;
26594;SDS011;14238;49.496;8.154;2022-12-01T07:43:58;25.57;;;18.73;;
26594;SDS011;14238;49.496;8.154;2022-12-01T07:46:25;20.90;;;15.13;;
26594;SDS011;14238;49.496;8.154;2022-12-01T07:48:52;23.63;;;18.27;;
26594;SDS011;14238;49.496;8.154;2022-12-01T07:51:18;22.97;;;16.87;;
26594;SDS011;14238;49.496;8.154;2022-12-01T07:53:46;23.77;;;17.57;;
26594;SDS011;14238;49.496;8.154;2022-12-01T07:56:16;26.90;;;18.30;;
26594;SDS011;14238;49.496;8.154;2022-12-01T07:58:42;26.10;;;17.97;;
26594;SDS011;14238;49.496;8.154;2022-12-01T08:01:12;25.63;;;19.17;;
26594;SDS011;14238;49.496;8.154;2022-12-01T08:03:40;23.13;;;17.20;;
26594;SDS011;14238;49.496;8.154;2022-12-01T08:06:06;24.07;;;18.90;;
26594;SDS011;14238;49.496;8.154;2022-12-01T08:08:33;23.13;;;18.83;;
26594;SDS011;14238;49.496;8.154;2022-12-01T08:11:01;23.33;;;17.63;;
26594;SDS011;14238;49.496;8.154;2022-12-01T08:13:28;23.50;;;17.47;;
26594;SDS011;14238;49.496;8.154;2022-12-01T08:15:54;24.23;;;18.07;;
26594;SDS011;14238;49.496;8.154;2022-12-01T08:18:20;21.37;;;16.43;;
26594;SDS011;14238;49.496;8.154;2022-12-01T08:20:46;24.63;;;17.27;;
26594;SDS011;14238;49.496;8.154;2022-12-01T08:23:12;23.80;;;18.33;;
26594;SDS011;14238;49.496;8.154;2022-12-01T08:25:38;23.90;;;17.70;;
26594;SDS011;14238;49.496;8.154;2022-12-01T08:28:03;22.80;;;17.20;;
26594;SDS011;14238;49.496;8.154;2022-12-01T08:30:29;20.63;;;15.77;;
26594;SDS011;14238;49.496;8.154;2022-12-01T08:32:55;24.03;;;18.10;;
26594;SDS011;14238;49.496;8.154;2022-12-01T08:35:21;26.70;;;18.83;;
26594;SDS011;14238;49.496;8.154;2022-12-01T08:37:50;26.53;;;17.40;;
26594;SDS011;14238;49.496;8.154;2022-12-01T08:40:17;22.37;;;18.33;;
26594;SDS011;14238;49.496;8.154;2022-12-01T08:42:43;21.97;;;17.27;;
26594;SDS011;14238;49.496;8.154;2022-12-01T08:45:09;21.43;;;16.57;;
26594;SDS011;14238;49.496;8.154;2022-12-01T08:47:34;20.10;;;16.13;;
26594;SDS011;14238;49.496;8.154;2022-12-01T08:50:00;20.53;;;15.53;;
26594;SDS011;14238;49.496;8.154;2022-12-01T08:52:30;17.77;;;14.90;;
26594;SDS011;14238;49.496;8.154;2022-12-01T08:54:57;24.17;;;17.57;;
26594;SDS011;14238;49.496;8.154;2022-12-01T08:57:23;22.93;;;15.83;;
26594;SDS011;14238;49.496;8.154;2022-12-01T08:59:48;20.40;;;16.40;;
26594;SDS011;14238;49.496;8.154;2022-12-01T09:02:14;21.40;;;17.10;;
26594;SDS011;14238;49.496;8.154;2022-12-01T09:04:42;22.10;;;17.50;;
26594;SDS011;14238;49.496;8.154;2022-12-01T09:07:08;24.17;;;17.83;;
26594;SDS011;14238;49.496;8.154;2022-12-01T09:09:35;20.30;;;15.73;;
26594;SDS011;14238;49.496;8.154;2022-12-01T09:12:02;25.47;;;17.93;;
26594;SDS011;14238;49.496;8.154;2022-12-01T09:14:27;24.97;;;16.80;;
26594;SDS011;14238;49.496;8.154;2022-12-01T09:16:53;22.33;;;18.30;;
26594;SDS011;14238;49.496;8.154;2022-12-01T09:19:19;23.20;;;17.40;;
26594;SDS011;14238;49.496;8.154;2022-12-01T09:21:45;25.03;;;18.37;;
26594;SDS011;14238;49.496;8.154;2022-12-01T09:24:12;23.00;;;19.07;;
26594;SDS011;14238;49.496;8.154;2022-12-01T09:26:39;25.07;;;17.90;;
26594;SDS011;14238;49.496;8.154;2022-12-01T09:29:06;24.70;;;18.30;;
26594;SDS011;14238;49.496;8.154;2022-12-01T09:31:34;26.17;;;18.87;;
26594;SDS011;14238;49.496;8.154;2022-12-01T09:34:01;24.77;;;19.10;;
26594;SDS011;14238;49.496;8.154;2022-12-01T09:36:28;23.17;;;17.77;;
26594;SDS011;14238;49.496;8.154;2022-12-01T09:38:55;25.37;;;18.27;;
26594;SDS011;14238;49.496;8.154;2022-12-01T09:41:25;25.40;;;18.33;;
26594;SDS011;14238;49.496;8.154;2022-12-01T09:46:37;22.10;;;17.87;;
26594;SDS011;14238;49.496;8.154;2022-12-01T09:49:23;27.53;;;20.00;;
26594;SDS011;14238;49.496;8.154;2022-12-01T09:52:10;26.40;;;19.70;;
26594;SDS011;14238;49.496;8.154;2022-12-01T09:54:37;26.60;;;20.23;;
26594;SDS011;14238;49.496;8.154;2022-12-01T09:57:03;32.90;;;22.17;;
26594;SDS011;14238;49.496;8.154;2022-12-01T09:59:38;31.13;;;22.50;;
26594;SDS011;14238;49.496;8.154;2022-12-01T10:02:15;26.67;;;21.17;;
26594;SDS011;14238;49.496;8.154;2022-12-01T10:04:48;28.17;;;20.03;;
26594;SDS011;14238;49.496;8.154;2022-12-01T10:10:09;26.90;;;18.80;;
26594;SDS011;14238;49.496;8.154;2022-12-01T10:12:39;28.80;;;22.03;;
26594;SDS011;14238;49.496;8.154;2022-12-01T10:17:54;27.23;;;21.93;;
26594;SDS011;14238;49.496;8.154;2022-12-01T10:21:06;29.03;;;20.73;;
26594;SDS011;14238;49.496;8.154;2022-12-01T10:29:45;28.90;;;20.17;;
26594;SDS011;14238;49.496;8.154;2022-12-01T10:32:15;25.60;;;19.37;;
26594;SDS011;14238;49.496;8.154;2022-12-01T10:34:47;25.97;;;18.20;;
26594;SDS011;14238;49.496;8.154;2022-12-01T10:37:14;26.23;;;19.50;;
26594;SDS011;14238;49.496;8.154;2022-12-01T10:39:44;28.93;;;20.23;;
26594;SDS011;14238;49.496;8.154;2022-12-01T10:42:12;23.00;;;17.47;;
26594;SDS011;14238;49.496;8.154;2022-12-01T10:45:00;23.93;;;18.70;;
26594;SDS011;14238;49.496;8.154;2022-12-01T10:47:28;24.00;;;18.97;;
26594;SDS011;14238;49.496;8.154;2022-12-01T10:49:54;25.40;;;19.10;;
26594;SDS011;14238;49.496;8.154;2022-12-01T10:55:03;21.67;;;17.00;;
26594;SDS011;14238;49.496;8.154;2022-12-01T10:57:48;23.87;;;18.37;;
26594;SDS011;14238;49.496;8.154;2022-12-01T11:00:25;23.63;;;17.73;;
26594;SDS011;14238;49.496;8.154;2022-12-01T11:02:52;22.50;;;16.67;;
26594;SDS011;14238;49.496;8.154;2022-12-01T11:05:25;22.17;;;17.10;;
26594;SDS011;14238;49.496;8.154;2022-12-01T11:07:56;20.53;;;17.23;;
26594;SDS011;14238;49.496;8.154;2022-12-01T11:10:23;21.57;;;17.20;;
26594;SDS011;14238;49.496;8.154;2022-12-01T11:12:52;19.37;;;16.40;;
26594;SDS011;14238;49.496;8.154;2022-12-01T11:15:30;17.50;;;15.00;;
26594;SDS011;14238;49.496;8.154;2022-12-01T11:18:21;21.70;;;17.17;;
26594;SDS011;14238;49.496;8.154;2022-12-01T11:23:45;20.40;;;16.70;;
26594;SDS011;14238;49.496;8.154;2022-12-01T11:28:50;18.70;;;15.93;;
26594;SDS011;14238;49.496;8.154;2022-12-01T11:31:21;22.27;;;15.43;;
26594;SDS011;14238;49.496;8.154;2022-12-01T11:33:59;20.93;;;16.87;;
26594;SDS011;14238;49.496;8.154;2022-12-01T11:36:33;21.10;;;17.10;;
26594;SDS011;14238;49.496;8.154;2022-12-01T11:39:16;20.30;;;15.57;;
26594;SDS011;14238;49.496;8.154;2022-12-01T11:42:38;21.00;;;15.63;;
26594;SDS011;14238;49.496;8.154;2022-12-01T11:44:53;21.77;;;16.03;;
26594;SDS011;14238;49.496;8.154;2022-12-01T11:47:56;19.10;;;15.60;;
26594;SDS011;14238;49.496;8.154;2022-12-01T11:50:36;19.57;;;16.03;;
26594;SDS011;14238;49.496;8.154;2022-12-01T11:53:03;18.23;;;15.37;;
26594;SDS011;14238;49.496;8.154;2022-12-01T11:55:48;22.70;;;15.57;;
26594;SDS011;14238;49.496;8.154;2022-12-01T11:58:14;20.60;;;16.90;;
26594;SDS011;14238;49.496;8.154;2022-12-01T12:00:46;20.77;;;16.57;;
26594;SDS011;14238;49.496;8.154;2022-12-01T12:03:24;19.30;;;15.43;;
26594;SDS011;14238;49.496;8.154;2022-12-01T12:06:11;20.63;;;16.00;;
26594;SDS011;14238;49.496;8.154;2022-12-01T12:09:05;17.87;;;14.47;;
26594;SDS011;14238;49.496;8.154;2022-12-01T12:14:22;23.27;;;16.93;;
26594;SDS011;14238;49.496;8.154;2022-12-01T12:19:54;19.80;;;15.30;;
26594;SDS011;14238;49.496;8.154;2022-12-01T12:28:12;19.37;;;14.57;;
26594;SDS011;14238;49.496;8.154;2022-12-01T12:30:41;16.77;;;14.23;;
26594;SDS011;14238;49.496;8.154;2022-12-01T12:33:42;16.33;;;13.50;;
26594;SDS011;14238;49.496;8.154;2022-12-01T12:39:02;18.47;;;14.20;;
26594;SDS011;14238;49.496;8.154;2022-12-01T12:41:49;20.33;;;15.60;;
26594;SDS011;14238;49.496;8.154;2022-12-01T12:47:24;18.03;;;14.97;;
26594;SDS011;14238;49.496;8.154;2022-12-01T12:50:22;20.13;;;14.77;;
26594;SDS011;14238;49.496;8.154;2022-12-01T12:53:01;21.00;;;14.97;;
26594;SDS011;14238;49.496;8.154;2022-12-01T12:55:35;17.93;;;14.83;;
26594;SDS011;14238;49.496;8.154;2022-12-01T12:58:21;19.47;;;15.60;;
26594;SDS011;14238;49.496;8.154;2022-12-01T13:01:04;18.50;;;14.47;;
26594;SDS011;14238;49.496;8.154;2022-12-01T13:03:37;20.33;;;15.03;;
26594;SDS011;14238;49.496;8.154;2022-12-01T13:06:21;22.67;;;15.67;;
26594;SDS011;14238;49.496;8.154;2022-12-01T13:08:59;17.23;;;14.10;;
26594;SDS011;14238;49.496;8.154;2022-12-01T13:11:31;19.70;;;15.73;;
26594;SDS011;14238;49.496;8.154;2022-12-01T13:14:05;21.27;;;15.00;;
26594;SDS011;14238;49.496;8.154;2022-12-01T13:16:40;18.03;;;14.80;;
26594;SDS011;14238;49.496;8.154;2022-12-01T13:19:12;20.27;;;15.03;;
26594;SDS011;14238;49.496;8.154;2022-12-01T13:21:42;19.03;;;15.10;;
26594;SDS011;14238;49.496;8.154;2022-12-01T13:24:14;17.87;;;14.57;;
26594;SDS011;14238;49.496;8.154;2022-12-01T13:26:56;21.37;;;15.20;;
26594;SDS011;14238;49.496;8.154;2022-12-01T13:29:29;19.60;;;14.90;;
26594;SDS011;14238;49.496;8.154;2022-12-01T13:31:58;20.43;;;15.70;;
26594;SDS011;14238;49.496;8.154;2022-12-01T13:36:52;19.00;;;15.07;;
26594;SDS011;14238;49.496;8.154;2022-12-01T13:39:20;17.60;;;13.47;;
26594;SDS011;14238;49.496;8.154;2022-12-01T13:41:59;18.00;;;14.90;;
26594;SDS011;14238;49.496;8.154;2022-12-01T13:44:36;19.60;;;15.07;;
26594;SDS011;14238;49.496;8.154;2022-12-01T13:47:47;18.10;;;14.50;;
26594;SDS011;14238;49.496;8.154;2022-12-01T13:49:55;19.10;;;15.20;;
26594;SDS011;14238;49.496;8.154;2022-12-01T13:54:59;18.93;;;15.00;;
26594;SDS011;14238;49.496;8.154;2022-12-01T13:57:26;18.47;;;15.13;;
26594;SDS011;14238;49.496;8.154;2022-12-01T14:02:23;17.00;;;15.00;;
26594;SDS011;14238;49.496;8.154;2022-12-01T14:04:50;16.93;;;13.90;;
26594;SDS011;14238;49.496;8.154;2022-12-01T14:09:56;20.60;;;15.27;;
26594;SDS011;14238;49.496;8.154;2022-12-01T14:12:31;17.50;;;13.43;;
26594;SDS011;14238;49.496;8.154;2022-12-01T14:15:03;20.77;;;15.13;;
26594;SDS011;14238;49.496;8.154;2022-12-01T14:17:44;21.13;;;16.00;;
26594;SDS011;14238;49.496;8.154;2022-12-01T14:22:41;20.57;;;14.43;;
26594;SDS011;14238;49.496;8.154;2022-12-01T14:27:44;22.60;;;16.03;;
26594;SDS011;14238;49.496;8.154;2022-12-01T14:36:11;19.00;;;13.87;;
26594;SDS011;14238;49.496;8.154;2022-12-01T14:38:37;21.07;;;14.43;;
26594;SDS011;14238;49.496;8.154;2022-12-01T14:41:08;18.13;;;14.63;;
26594;SDS011;14238;49.496;8.154;2022-12-01T14:43:35;22.13;;;15.10;;
26594;SDS011;14238;49.496;8.154;2022-12-01T14:46:23;17.70;;;14.20;;
26594;SDS011;14238;49.496;8.154;2022-12-01T14:48:51;19.97;;;15.00;;
26594;SDS011;14238;49.496;8.154;2022-12-01T14:51:31;17.97;;;14.70;;
26594;SDS011;14238;49.496;8.154;2022-12-01T14:54:00;20.67;;;16.23;;
26594;SDS011;14238;49.496;8.154;2022-12-01T14:56:41;19.10;;;15.10;;
26594;SDS011;14238;49.496;8.154;2022-12-01T14:59:18;20.77;;;15.13;;
26594;SDS011;14238;49.496;8.154;2022-12-01T15:01:47;21.90;;;17.03;;
26594;SDS011;14238;49.496;8.154;2022-12-01T15:04:15;21.00;;;15.50;;
26594;SDS011;14238;49.496;8.154;2022-12-01T15:06:40;23.17;;;17.27;;
26594;SDS011;14238;49.496;8.154;2022-12-01T15:09:16;21.50;;;16.70;;
26594;SDS011;14238;49.496;8.154;2022-12-01T15:11:50;23.27;;;17.10;;
26594;SDS011;14238;49.496;8.154;2022-12-01T15:17:00;21.10;;;16.57;;
26594;SDS011;14238;49.496;8.154;2022-12-01T15:19:34;22.33;;;15.67;;
26594;SDS011;14238;49.496;8.154;2022-12-01T15:22:03;24.27;;;16.67;;
26594;SDS011;14238;49.496;8.154;2022-12-01T15:24:39;24.23;;;17.23;;
26594;SDS011;14238;49.496;8.154;2022-12-01T15:27:21;20.77;;;15.90;;
26594;SDS011;14238;49.496;8.154;2022-12-01T15:29:48;19.73;;;14.43;;
26594;SDS011;14238;49.496;8.154;2022-12-01T15:32:14;20.70;;;16.17;;
26594;SDS011;14238;49.496;8.154;2022-12-01T15:34:43;18.17;;;14.37;;
26594;SDS011;14238;49.496;8.154;2022-12-01T15:37:14;21.40;;;16.37;;
26594;SDS011;14238;49.496;8.154;2022-12-01T15:39:46;20.83;;;15.90;;
26594;SDS011;14238;49.496;8.154;2022-12-01T15:42:29;18.33;;;14.23;;
26594;SDS011;14238;49.496;8.154;2022-12-01T15:45:14;19.97;;;14.77;;
26594;SDS011;14238;49.496;8.154;2022-12-01T15:50:24;23.47;;;16.87;;
26594;SDS011;14238;49.496;8.154;2022-12-01T15:52:57;25.37;;;16.33;;
26594;SDS011;14238;49.496;8.154;2022-12-01T15:55:35;21.47;;;16.57;;
26594;SDS011;14238;49.496;8.154;2022-12-01T15:58:05;22.80;;;16.90;;
26594;SDS011;14238;49.496;8.154;2022-12-01T16:00:32;27.30;;;17.17;;
26594;SDS011;14238;49.496;8.154;2022-12-01T16:02:59;22.90;;;17.00;;
26594;SDS011;14238;49.496;8.154;2022-12-01T16:05:29;23.80;;;17.43;;
26594;SDS011;14238;49.496;8.154;2022-12-01T16:07:56;23.33;;;17.83;;
26594;SDS011;14238;49.496;8.154;2022-12-01T16:10:33;27.07;;;19.20;;
26594;SDS011;14238;49.496;8.154;2022-12-01T16:19:02;28.20;;;18.57;;
26594;SDS011;14238;49.496;8.154;2022-12-01T16:21:32;27.27;;;18.37;;
26594;SDS011;14238;49.496;8.154;2022-12-01T16:24:09;25.00;;;17.60;;
26594;SDS011;14238;49.496;8.154;2022-12-01T16:26:45;23.93;;;17.77;;
26594;SDS011;14238;49.496;8.154;2022-12-01T16:29:16;23.63;;;17.00;;
26594;SDS011;14238;49.496;8.154;2022-12-01T16:31:43;25.33;;;18.43;;
26594;SDS011;14238;49.496;8.154;2022-12-01T16:34:13;28.30;;;19.37;;
26594;SDS011;14238;49.496;8.154;2022-12-01T16:36:41;24.77;;;17.47;;
26594;SDS011;14238;49.496;8.154;2022-12-01T16:39:07;27.57;;;19.43;;
26594;SDS011;14238;49.496;8.154;2022-12-01T16:41:32;28.00;;;20.07;;